Time;durP1;ratioP1;P1;durP2;ratioP2;P2;SDS_P1;SDS_P2;PMS_P1;PMS_P2;Temp;Humidity;BMP_temperature;BMP_pressure;BME280_temperature;BME280_humidity;BME280_pressure;Samples;Min_cycle;Max_cycle;Signal;HPM_P1;HPM_P2
2022/12/01 00:03:00;;;;;;;18.17;12.75;;;16.00;68.40;;;;;;10292661;28;20046;-54
2022/12/01 00:08:01;;;;;;;17.63;12.80;;;16.00;68.40;;;;;;10275073;28;20033;-51
2022/12/01 00:13:04;;;;;;;18.65;13.50;;;15.90;68.30;;;;;;10289770;28;20047;-53
2022/12/01 00:18:05;;;;;;;22.30;12.27;;;16.00;68.30;;;;;;10306719;28;20383;-51
2022/12/01 00:23:06;;;;;;;16.27;11.50;;;16.00;68.20;;;;;;10264564;28;20027;-55
2022/12/01 00:28:06;;;;;;;17.33;13.00;;;15.90;68.20;;;;;;10307202;28;20061;-54
2022/12/01 00:33:07;;;;;;;17.85;14.10;;;15.90;68.20;;;;;;10309507;28;20117;-54
2022/12/01 00:38:08;;;;;;;18.08;12.50;;;16.00;68.10;;;;;;10289032;28;20062;-52
2022/12/01 00:43:08;;;;;;;17.50;12.85;;;16.00;68.10;;;;;;10266643;28;20117;-54
2022/12/01 00:48:09;;;;;;;16.83;11.85;;;15.90;68.00;;;;;;10289577;28;20450;-52
2022/12/01 00:53:09;;;;;;;16.35;11.45;;;16.00;68.00;;;;;;10283430;28;20103;-51
2022/12/01 00:58:10;;;;;;;17.95;12.30;;;15.90;68.00;;;;;;10266331;28;20096;-54
2022/12/01 01:03:11;;;;;;;16.13;12.20;;;16.00;68.10;;;;;;10316749;28;20057;-53
2022/12/01 01:08:13;;;;;;;16.13;10.65;;;16.00;68.00;;;;;;10318962;28;20031;-54
2022/12/01 01:13:15;;;;;;;16.85;11.70;;;15.90;68.00;;;;;;10264481;28;20363;-55
2022/12/01 01:18:15;;;;;;;16.35;12.27;;;15.90;68.00;;;;;;10274336;28;20030;-55
2022/12/01 01:23:16;;;;;;;14.77;10.85;;;16.00;68.00;;;;;;10290424;28;20023;-54
2022/12/01 01:28:18;;;;;;;15.85;11.68;;;15.90;68.00;;;;;;10284091;28;20057;-53
2022/12/01 01:33:19;;;;;;;14.57;12.10;;;15.90;67.90;;;;;;10330469;28;20715;-55
2022/12/01 01:38:19;;;;;;;16.25;11.25;;;16.00;67.80;;;;;;10318110;28;20121;-52
2022/12/01 01:43:49;;;;;;;15.32;11.20;;;16.10;67.60;;;;;;10288434;28;20047;-54
2022/12/01 01:49:00;;;;;;;17.25;11.75;;;16.10;67.50;;;;;;10295315;28;20422;-52
2022/12/01 01:54:07;;;;;;;14.88;10.48;;;16.00;67.60;;;;;;10326473;28;20645;-55
2022/12/01 01:59:12;;;;;;;14.80;11.15;;;16.00;67.70;;;;;;10294513;28;20049;-55
2022/12/01 02:04:14;;;;;;;16.08;12.77;;;15.90;67.70;;;;;;10272179;28;20106;-53
2022/12/01 02:09:15;;;;;;;14.85;11.30;;;15.90;67.80;;;;;;10290556;28;20022;-53
2022/12/01 02:14:44;;;;;;;13.82;10.38;;;15.90;67.80;;;;;;10301371;28;20530;-53
2022/12/01 02:20:06;;;;;;;13.13;10.57;;;16.00;67.70;;;;;;10289492;28;20133;-53
2022/12/01 02:25:36;;;;;;;14.02;11.05;;;16.00;67.60;;;;;;10303719;28;20101;-54
2022/12/01 02:30:44;;;;;;;15.57;11.30;;;16.00;67.40;;;;;;10297117;28;20406;-53
2022/12/01 02:36:00;;;;;;;16.50;10.23;;;16.00;67.50;;;;;;10288081;28;20053;-53
2022/12/01 02:41:20;;;;;;;15.90;12.15;;;16.00;67.90;;;;;;10305429;28;20041;-51
2022/12/01 02:46:53;;;;;;;15.23;9.77;;;16.00;67.30;;;;;;10249987;28;20019;-54
2022/12/01 02:51:54;;;;;;;14.93;10.63;;;16.00;67.40;;;;;;10281613;28;20046;-54
2022/12/01 02:56:55;;;;;;;16.05;11.43;;;16.00;67.20;;;;;;10271147;28;20085;-52
2022/12/01 03:02:17;;;;;;;13.35;10.68;;;16.00;67.20;;;;;;10299327;28;20082;-53
2022/12/01 03:07:36;;;;;;;14.88;10.60;;;16.00;67.30;;;;;;10287168;28;20015;-53
2022/12/01 03:13:04;;;;;;;15.90;10.43;;;16.10;67.20;;;;;;10277640;28;20613;-54
2022/12/01 03:18:46;;;;;;;14.00;10.75;;;16.00;67.10;;;;;;10294946;28;20044;-52
2022/12/01 03:23:53;;;;;;;14.73;10.50;;;16.00;67.20;;;;;;10281773;28;20058;-53
2022/12/01 03:29:02;;;;;;;14.48;10.35;;;16.10;67.00;;;;;;10305119;28;20026;-54
2022/12/01 03:34:13;;;;;;;14.70;11.13;;;16.00;67.70;;;;;;10308836;28;20363;-54
2022/12/01 03:39:20;;;;;;;15.75;11.20;;;16.10;67.10;;;;;;10285291;28;20039;-54
2022/12/01 03:44:31;;;;;;;14.07;10.38;;;16.00;66.90;;;;;;10257788;28;20030;-53
2022/12/01 03:49:34;;;;;;;13.98;9.50;;;16.00;67.00;;;;;;10288727;28;20031;-54
2022/12/01 03:55:01;;;;;;;14.55;11.18;;;16.10;67.00;;;;;;10289467;28;20631;-52
2022/12/01 04:00:03;;;;;;;13.93;10.45;;;16.00;66.80;;;;;;10310264;28;20042;-53
2022/12/01 04:05:10;;;;;;;14.63;10.43;;;16.00;66.90;;;;;;10297563;28;20030;-52
2022/12/01 04:10:10;;;;;;;16.85;11.57;;;16.10;66.80;;;;;;10288508;28;20034;-52
2022/12/01 04:15:13;;;;;;;13.10;11.68;;;16.10;66.70;;;;;;10302983;28;20481;-52
2022/12/01 04:20:14;;;;;;;13.93;10.57;;;16.10;66.90;;;;;;10294724;28;20034;-51
2022/12/01 04:25:15;;;;;;;13.88;10.13;;;16.00;66.80;;;;;;10266785;28;20081;-54
2022/12/01 04:30:16;;;;;;;16.20;12.48;;;16.00;67.00;;;;;;10313440;28;20038;-53
2022/12/01 04:35:17;;;;;;;19.42;10.80;;;16.00;67.00;;;;;;10323939;28;20053;-54
2022/12/01 04:40:20;;;;;;;15.18;11.02;;;16.00;66.90;;;;;;10304540;28;20033;-52
2022/12/01 04:45:21;;;;;;;14.45;10.48;;;16.00;67.00;;;;;;10332676;28;20022;-53
2022/12/01 04:50:21;;;;;;;13.85;10.40;;;16.00;66.90;;;;;;10290880;28;20065;-54
2022/12/01 04:55:22;;;;;;;14.00;9.60;;;16.00;66.90;;;;;;10331920;28;20061;-53
2022/12/01 05:00:23;;;;;;;15.80;11.38;;;16.00;66.90;;;;;;10301485;28;20828;-53
2022/12/01 05:05:23;;;;;;;16.30;10.82;;;16.00;66.80;;;;;;10274276;28;20026;-53
2022/12/01 05:10:24;;;;;;;14.50;10.73;;;16.00;66.80;;;;;;10305267;28;20029;-53
2022/12/01 05:15:25;;;;;;;14.75;10.52;;;16.00;66.90;;;;;;10278281;28;20077;-53
2022/12/01 05:25:45;;;;;;;14.77;10.37;;;16.00;66.80;;;;;;10294648;28;20073;-55
2022/12/01 05:30:45;;;;;;;15.05;11.23;;;16.00;66.80;;;;;;10290420;28;20015;-54
2022/12/01 05:35:47;;;;;;;16.65;11.50;;;16.00;66.70;;;;;;10290147;28;20093;-52
2022/12/01 05:40:54;;;;;;;14.73;11.73;;;16.00;66.80;;;;;;10303818;28;20066;-54
2022/12/01 05:45:55;;;;;;;17.85;11.63;;;16.00;66.60;;;;;;10312086;28;20052;-51
2022/12/01 05:50:56;;;;;;;19.25;12.80;;;16.00;66.20;;;;;;10296341;28;20050;-55
2022/12/01 05:55:57;;;;;;;19.13;13.95;;;16.00;66.00;;;;;;10286609;28;20065;-55
2022/12/01 06:00:57;;;;;;;26.55;14.90;;;16.10;67.50;;;;;;10320789;28;20083;-53
2022/12/01 06:05:58;;;;;;;23.95;14.18;;;16.30;68.10;;;;;;10311709;28;20099;-52
2022/12/01 06:10:59;;;;;;;24.90;14.02;;;16.40;68.30;;;;;;10295933;28;20678;-53
2022/12/01 06:16:03;;;;;;;25.02;14.50;;;16.40;69.50;;;;;;10281028;28;20019;-53
2022/12/01 06:21:05;;;;;;;22.65;14.07;;;16.40;69.60;;;;;;10294754;28;20801;-54
2022/12/01 06:26:06;;;;;;;19.65;13.25;;;16.30;69.90;;;;;;10273846;28;20451;-54
2022/12/01 06:31:07;;;;;;;23.02;14.88;;;16.20;69.40;;;;;;10289546;28;20027;-53
2022/12/01 06:36:09;;;;;;;21.65;13.15;;;16.20;69.50;;;;;;10302415;28;20531;-52
2022/12/01 06:41:09;;;;;;;22.55;13.43;;;16.00;69.70;;;;;;10327343;28;20566;-53
2022/12/01 06:46:10;;;;;;;23.88;13.75;;;15.90;69.80;;;;;;10326389;28;20101;-54
2022/12/01 06:51:11;;;;;;;21.90;14.68;;;15.90;69.80;;;;;;10283029;28;20573;-52
2022/12/01 06:56:12;;;;;;;21.77;13.40;;;15.80;70.10;;;;;;10306219;28;20139;-53
2022/12/01 07:01:12;;;;;;;29.85;15.68;;;15.80;70.10;;;;;;10310117;28;20097;-53
2022/12/01 07:06:13;;;;;;;26.35;13.65;;;15.80;69.90;;;;;;10320234;28;20109;-53
2022/12/01 07:11:15;;;;;;;28.30;14.30;;;15.80;69.80;;;;;;10305357;28;20105;-54
2022/12/01 07:16:16;;;;;;;23.70;13.75;;;15.80;69.70;;;;;;10311652;28;20034;-51
2022/12/01 07:21:16;;;;;;;26.52;14.30;;;15.70;70.20;;;;;;10285449;28;20026;-52
2022/12/01 07:26:17;;;;;;;22.50;13.50;;;15.80;69.60;;;;;;10294122;28;20026;-54
2022/12/01 07:31:18;;;;;;;30.83;14.27;;;15.80;69.40;;;;;;10285053;28;20034;-55
2022/12/01 07:36:19;;;;;;;23.98;14.57;;;15.80;69.00;;;;;;10270529;28;20466;-53
2022/12/01 07:41:20;;;;;;;29.63;14.80;;;15.80;69.00;;;;;;10256491;28;20050;-53
2022/12/01 07:46:24;;;;;;;22.65;13.80;;;15.80;69.00;;;;;;10267935;28;20541;-54
2022/12/01 07:51:25;;;;;;;31.30;15.13;;;15.70;68.90;;;;;;10265555;28;20117;-53
2022/12/01 07:56:26;;;;;;;20.48;12.27;;;15.80;68.50;;;;;;10282743;28;20058;-53
2022/12/01 08:01:27;;;;;;;21.48;14.35;;;15.80;68.10;;;;;;10271829;28;20101;-52
2022/12/01 08:06:27;;;;;;;23.58;13.63;;;15.80;68.00;;;;;;10284013;28;20027;-54
2022/12/01 08:11:29;;;;;;;18.15;12.02;;;15.90;67.80;;;;;;10288342;28;20058;-54
2022/12/01 08:16:30;;;;;;;19.02;12.43;;;15.90;67.60;;;;;;10282835;28;20075;-54
2022/12/01 08:21:31;;;;;;;18.35;13.55;;;15.80;67.50;;;;;;10283033;28;20158;-54
2022/12/01 08:26:32;;;;;;;18.88;12.38;;;15.90;67.40;;;;;;10283985;28;20105;-54
2022/12/01 08:31:36;;;;;;;19.88;11.98;;;15.90;67.30;;;;;;10283658;28;20025;-52
2022/12/01 08:36:37;;;;;;;15.05;12.48;;;15.80;67.20;;;;;;10299225;28;20086;-53
2022/12/01 08:41:43;;;;;;;19.38;12.43;;;15.90;67.00;;;;;;10305913;28;20070;-51
2022/12/01 08:46:44;;;;;;;24.65;13.77;;;15.90;66.90;;;;;;10315489;28;20109;-54
2022/12/01 08:51:44;;;;;;;21.58;13.77;;;15.90;67.00;;;;;;10273186;28;20059;-52
2022/12/01 08:56:45;;;;;;;17.52;11.52;;;15.80;67.10;;;;;;10317630;28;20037;-53
2022/12/01 09:01:52;;;;;;;20.95;13.65;;;15.80;67.10;;;;;;10323589;28;20018;-54
2022/12/01 09:06:55;;;;;;;20.55;14.15;;;15.90;66.90;;;;;;10323337;28;20042;-54
2022/12/01 09:11:55;;;;;;;19.52;12.02;;;15.80;66.90;;;;;;10259827;28;20102;-52
2022/12/01 09:16:56;;;;;;;24.75;12.88;;;15.90;66.70;;;;;;10282235;28;20658;-52
2022/12/01 09:21:57;;;;;;;21.75;14.80;;;15.90;66.60;;;;;;10281362;28;20054;-57
2022/12/01 09:26:59;;;;;;;22.40;13.30;;;15.80;66.90;;;;;;10268950;28;20039;-54
2022/12/01 09:32:00;;;;;;;25.50;14.52;;;15.80;66.60;;;;;;10302967;28;20033;-53
2022/12/01 09:37:01;;;;;;;20.80;13.25;;;15.90;66.10;;;;;;10330138;28;20050;-52
2022/12/01 09:42:12;;;;;;;19.88;14.13;;;15.90;65.50;;;;;;10303950;28;20185;-55
2022/12/01 09:47:32;;;;;;;24.17;14.00;;;16.00;65.20;;;;;;10281431;28;20037;-54
2022/12/01 09:52:48;;;;;;;26.20;16.67;;;16.00;64.80;;;;;;10262518;28;20054;-54
2022/12/01 09:57:54;;;;;;;22.60;16.25;;;16.00;64.60;;;;;;10288594;28;20355;-54
2022/12/01 10:03:20;;;;;;;22.55;15.30;;;16.10;64.40;;;;;;10312312;28;20459;-53
2022/12/01 10:08:26;;;;;;;22.70;16.77;;;16.10;64.20;;;;;;10291915;28;20026;-52
2022/12/01 10:13:27;;;;;;;26.70;15.98;;;16.10;63.80;;;;;;10271189;28;20652;-53
2022/12/01 10:19:02;;;;;;;21.65;14.70;;;16.10;63.50;;;;;;10287544;28;20050;-53
2022/12/01 10:24:22;;;;;;;22.60;16.00;;;16.20;63.40;;;;;;10308591;28;20019;-53
2022/12/01 10:29:44;;;;;;;21.90;15.18;;;16.20;63.20;;;;;;10310822;28;20022;-54
2022/12/01 10:34:46;;;;;;;23.08;15.18;;;16.20;63.00;;;;;;10312955;28;20052;-55
2022/12/01 10:39:50;;;;;;;24.80;16.17;;;16.30;62.80;;;;;;10309404;28;20034;-52
2022/12/01 10:44:54;;;;;;;24.67;16.05;;;16.30;62.70;;;;;;10287625;28;20157;-54
2022/12/01 10:49:55;;;;;;;26.38;17.35;;;16.30;62.60;;;;;;10280311;28;20050;-53
2022/12/01 10:54:55;;;;;;;23.88;17.48;;;16.30;62.50;;;;;;10288640;28;20026;-54
2022/12/01 11:00:10;;;;;;;26.50;18.20;;;16.10;62.60;;;;;;10294141;28;20475;-52
2022/12/01 11:05:25;;;;;;;25.63;18.77;;;15.90;63.40;;;;;;10286862;28;20494;-58
2022/12/01 11:10:29;;;;;;;29.35;19.10;;;15.90;63.30;;;;;;10273764;28;20378;-53
2022/12/01 11:15:40;;;;;;;30.77;22.17;;;15.80;63.00;;;;;;10260810;28;20026;-52
2022/12/01 11:20:40;;;;;;;32.25;21.25;;;15.90;62.70;;;;;;10268885;28;20114;-51
2022/12/01 11:25:54;;;;;;;29.65;19.48;;;16.00;62.40;;;;;;10289680;28;20034;-51
2022/12/01 11:31:02;;;;;;;31.67;21.00;;;16.00;63.00;;;;;;10309862;28;20382;-53
2022/12/01 11:36:03;;;;;;;30.65;18.80;;;16.00;63.30;;;;;;10325596;28;20419;-52
2022/12/01 11:41:04;;;;;;;27.70;17.30;;;16.00;63.70;;;;;;10295663;28;20055;-52
2022/12/01 11:46:07;;;;;;;28.83;18.88;;;15.90;63.90;;;;;;10267968;28;20019;-53
2022/12/01 11:51:31;;;;;;;30.02;19.67;;;15.90;64.00;;;;;;10284748;28;20015;-51
2022/12/01 11:56:32;;;;;;;28.15;18.38;;;15.90;64.10;;;;;;10261530;28;20220;-51
2022/12/01 12:01:52;;;;;;;25.42;17.70;;;15.80;64.40;;;;;;10267361;28;20027;-56
2022/12/01 12:07:10;;;;;;;25.98;17.80;;;15.80;64.50;;;;;;10285009;28;20027;-54
2022/12/01 12:12:40;;;;;;;23.95;17.58;;;15.70;64.70;;;;;;10275625;28;20380;-54
2022/12/01 12:17:49;;;;;;;27.63;18.08;;;15.70;64.70;;;;;;10284564;28;20027;-54
2022/12/01 12:22:59;;;;;;;22.45;16.77;;;15.70;64.90;;;;;;10284412;28;20038;-53
2022/12/01 12:28:43;;;;;;;24.60;17.38;;;15.60;65.20;;;;;;10286989;28;20517;-49
2022/12/01 12:34:11;;;;;;;24.73;16.88;;;15.50;65.40;;;;;;10259433;28;20061;-55
2022/12/01 12:39:23;;;;;;;24.02;16.77;;;15.50;65.50;;;;;;10277154;28;20109;-54
2022/12/01 12:44:49;;;;;;;25.77;16.52;;;15.40;65.60;;;;;;10283402;28;20037;-55
2022/12/01 12:50:26;;;;;;;23.83;16.60;;;15.40;65.60;;;;;;10249982;28;20058;-51
2022/12/01 12:55:40;;;;;;;29.10;19.00;;;15.40;65.60;;;;;;10276632;28;20475;-52
2022/12/01 13:00:49;;;;;;;22.27;15.40;;;15.50;65.20;;;;;;10267706;28;20097;-49
2022/12/01 13:06:05;;;;;;;21.37;16.07;;;15.50;65.00;;;;;;10307532;28;20026;-53
2022/12/01 13:11:50;;;;;;;23.75;16.38;;;15.60;64.80;;;;;;10295293;28;20254;-55
2022/12/01 13:16:56;;;;;;;20.90;15.15;;;15.60;64.70;;;;;;10272129;28;20061;-54
2022/12/01 13:21:58;;;;;;;22.48;14.70;;;15.60;64.70;;;;;;10275712;28;20037;-54
2022/12/01 13:27:25;;;;;;;21.35;15.05;;;15.70;64.40;;;;;;10290066;28;20062;-55
2022/12/01 13:32:34;;;;;;;23.42;14.70;;;15.70;64.20;;;;;;10308885;28;20133;-51
2022/12/01 13:37:37;;;;;;;20.42;16.02;;;15.80;64.00;;;;;;10312729;28;20490;-54
2022/12/01 13:42:39;;;;;;;18.80;14.63;;;15.80;64.00;;;;;;10282859;28;20093;-55
2022/12/01 13:47:45;;;;;;;22.45;16.90;;;15.80;64.10;;;;;;10289314;28;20025;-55
2022/12/01 13:53:05;;;;;;;23.05;14.27;;;15.80;64.00;;;;;;10289089;28;20078;-55
2022/12/01 13:58:05;;;;;;;20.98;14.23;;;15.80;63.80;;;;;;10288836;28;20114;-54
2022/12/01 14:03:12;;;;;;;21.25;14.85;;;15.80;63.80;;;;;;10288719;28;20023;-51
2022/12/01 14:08:21;;;;;;;21.75;16.42;;;15.80;63.80;;;;;;10288764;28;20034;-53
2022/12/01 14:13:22;;;;;;;21.25;14.75;;;15.80;63.90;;;;;;10261545;28;20108;-52
2022/12/01 14:18:34;;;;;;;21.63;14.10;;;15.80;64.00;;;;;;10276952;28;20038;-54
2022/12/01 14:23:56;;;;;;;19.73;13.98;;;15.80;63.90;;;;;;10288556;28;20027;-52
2022/12/01 14:28:59;;;;;;;21.02;14.50;;;15.90;63.70;;;;;;10273632;28;20090;-54
2022/12/01 14:34:23;;;;;;;20.67;14.38;;;15.90;63.60;;;;;;10287930;28;20145;-55
2022/12/01 14:39:46;;;;;;;17.50;13.43;;;15.90;63.50;;;;;;10272327;28;20105;-55
2022/12/01 14:44:49;;;;;;;18.92;12.65;;;15.90;63.40;;;;;;10288511;28;20410;-54
2022/12/01 14:50:08;;;;;;;16.63;12.65;;;16.00;63.50;;;;;;10292954;28;20027;-54
2022/12/01 14:55:24;;;;;;;18.67;12.52;;;16.00;63.40;;;;;;10270352;28;20019;-55
2022/12/01 15:00:26;;;;;;;18.45;12.68;;;15.90;63.60;;;;;;10287029;28;20039;-52
2022/12/01 15:05:31;;;;;;;16.65;12.05;;;15.90;63.90;;;;;;10286800;28;20019;-54
2022/12/01 15:10:34;;;;;;;16.30;12.80;;;15.90;63.80;;;;;;10269245;28;20477;-55
2022/12/01 15:15:36;;;;;;;17.40;12.57;;;15.90;63.70;;;;;;10265854;28;20023;-54
2022/12/01 15:20:38;;;;;;;17.77;12.43;;;15.80;63.90;;;;;;10286585;28;20035;-54
2022/12/01 15:25:42;;;;;;;16.50;11.70;;;15.80;64.00;;;;;;10268080;28;20022;-52
2022/12/01 15:30:50;;;;;;;17.35;11.52;;;15.80;63.80;;;;;;10275912;28;20606;-55
2022/12/01 15:35:52;;;;;;;15.82;11.98;;;15.90;63.70;;;;;;10273923;28;20109;-53
2022/12/01 15:40:54;;;;;;;16.30;10.82;;;16.00;63.40;;;;;;10302924;28;20038;-51
2022/12/01 15:46:08;;;;;;;18.08;12.35;;;16.00;63.40;;;;;;10325537;28;20374;-54
2022/12/01 15:51:25;;;;;;;15.73;10.35;;;15.90;63.70;;;;;;10297083;28;20069;-54
2022/12/01 15:56:31;;;;;;;15.35;12.20;;;15.90;63.70;;;;;;10284630;28;20114;-54
2022/12/01 16:01:34;;;;;;;16.83;11.85;;;15.90;63.70;;;;;;10267809;28;20050;-54
2022/12/01 16:06:38;;;;;;;17.02;11.70;;;15.90;63.80;;;;;;10283084;28;20050;-52
2022/12/01 16:11:39;;;;;;;14.35;10.95;;;15.90;63.90;;;;;;10270614;28;20026;-55
2022/12/01 16:16:46;;;;;;;16.40;11.30;;;15.90;63.70;;;;;;10284390;28;20425;-54
2022/12/01 16:22:11;;;;;;;16.70;11.90;;;15.90;63.90;;;;;;10267340;28;20849;-55
2022/12/01 16:27:22;;;;;;;14.55;10.60;;;15.90;64.60;;;;;;10257670;28;20120;-55
2022/12/01 16:32:40;;;;;;;15.80;10.45;;;15.80;64.10;;;;;;10277148;28;20062;-54
2022/12/01 16:37:40;;;;;;;16.13;12.43;;;16.00;64.00;;;;;;10280439;28;20059;-54
2022/12/01 16:42:42;;;;;;;15.75;10.85;;;16.00;63.60;;;;;;10315762;28;20105;-55
2022/12/01 16:47:45;;;;;;;15.75;11.10;;;16.00;63.70;;;;;;10322646;28;20101;-52
2022/12/01 16:52:46;;;;;;;17.25;11.75;;;16.00;63.60;;;;;;10270327;28;20046;-50
2022/12/01 16:57:47;;;;;;;17.55;11.57;;;15.90;63.90;;;;;;10263330;28;20074;-54
2022/12/01 17:02:47;;;;;;;19.63;12.32;;;15.90;63.50;;;;;;10270685;28;20019;-51
2022/12/01 17:07:48;;;;;;;25.88;16.10;;;16.00;63.20;;;;;;10293493;28;20090;-53
2022/12/01 17:12:50;;;;;;;25.05;17.83;;;16.00;63.20;;;;;;10286504;28;20018;-55
2022/12/01 17:17:50;;;;;;;22.70;15.68;;;16.10;63.90;;;;;;10282570;28;20055;-54
2022/12/01 17:22:51;;;;;;;34.03;16.70;;;16.10;63.50;;;;;;10270853;28;20743;-52
2022/12/01 17:27:52;;;;;;;23.98;14.77;;;16.10;66.60;;;;;;10286495;28;20050;-53
2022/12/01 17:32:52;;;;;;;29.48;15.88;;;16.30;66.20;;;;;;10318054;28;20047;-54
2022/12/01 17:37:53;;;;;;;22.98;14.77;;;16.30;65.90;;;;;;10322664;28;20118;-54
2022/12/01 17:42:54;;;;;;;23.02;13.48;;;16.30;66.60;;;;;;10284041;28;20117;-55
2022/12/01 17:47:54;;;;;;;22.00;14.43;;;16.30;65.80;;;;;;10321248;28;20606;-56
2022/12/01 17:52:55;;;;;;;27.92;13.45;;;16.30;65.90;;;;;;10313609;28;20026;-52
2022/12/01 17:57:57;;;;;;;27.13;12.85;;;16.20;65.80;;;;;;10307907;28;20169;-53
2022/12/01 18:02:58;;;;;;;26.40;13.73;;;16.10;66.00;;;;;;10313071;28;20018;-53
2022/12/01 18:07:59;;;;;;;22.65;13.95;;;16.10;66.20;;;;;;10327933;28;20146;-54
2022/12/01 18:12:59;;;;;;;21.70;13.30;;;15.90;66.40;;;;;;10284506;28;20106;-54
2022/12/01 18:18:00;;;;;;;23.27;12.63;;;15.90;66.50;;;;;;10291274;28;20042;-52
2022/12/01 18:23:01;;;;;;;24.45;14.85;;;15.80;66.50;;;;;;10289980;28;20097;-52
2022/12/01 18:28:03;;;;;;;19.63;11.38;;;15.80;67.30;;;;;;10280607;28;20079;-51
2022/12/01 18:33:05;;;;;;;22.67;13.90;;;15.80;66.90;;;;;;10266304;28;20138;-50
2022/12/01 18:38:06;;;;;;;23.63;13.90;;;15.80;67.00;;;;;;10287922;28;20042;-53
2022/12/01 18:43:06;;;;;;;18.05;12.25;;;15.70;67.00;;;;;;10287447;28;20568;-49
2022/12/01 18:48:07;;;;;;;21.52;13.13;;;15.80;66.80;;;;;;10287743;28;20045;-50
2022/12/01 18:53:08;;;;;;;21.35;11.73;;;15.80;67.00;;;;;;10320308;28;20039;-51
2022/12/01 18:58:09;;;;;;;20.15;12.38;;;15.80;66.90;;;;;;10326674;28;20035;-52
2022/12/01 19:03:09;;;;;;;18.23;12.02;;;15.70;66.90;;;;;;10292617;28;20648;-52
2022/12/01 19:08:10;;;;;;;18.42;11.38;;;15.70;67.10;;;;;;10293143;28;20827;-52
2022/12/01 19:13:11;;;;;;;19.30;12.45;;;15.70;67.10;;;;;;10274492;28;20557;-52
2022/12/01 19:18:11;;;;;;;24.77;12.95;;;15.70;66.90;;;;;;10303973;28;20070;-51
2022/12/01 19:23:12;;;;;;;18.13;11.45;;;15.80;66.80;;;;;;10287257;28;20126;-51
2022/12/01 19:28:13;;;;;;;17.42;11.68;;;15.80;66.40;;;;;;10302417;28;20412;-53
2022/12/01 19:33:14;;;;;;;19.27;10.77;;;15.80;66.50;;;;;;10288865;28;20163;-52
2022/12/01 19:38:14;;;;;;;20.83;12.25;;;15.80;66.60;;;;;;10280216;28;20054;-52
2022/12/01 19:43:15;;;;;;;18.63;11.00;;;15.80;66.50;;;;;;10273404;28;20130;-50
2022/12/01 19:48:15;;;;;;;17.48;11.13;;;15.90;66.40;;;;;;10292357;28;20434;-52
2022/12/01 19:53:16;;;;;;;20.27;13.48;;;15.90;66.10;;;;;;10317228;28;20474;-54
2022/12/01 19:58:17;;;;;;;15.40;9.32;;;15.90;66.00;;;;;;10286708;28;20114;-53
2022/12/01 20:03:17;;;;;;;17.23;10.50;;;16.00;65.70;;;;;;10320437;28;20187;-53
2022/12/01 20:08:18;;;;;;;16.38;10.35;;;16.00;65.50;;;;;;10272579;28;20019;-54
2022/12/01 20:13:19;;;;;;;19.40;12.82;;;16.00;65.40;;;;;;10256519;28;20031;-54
2022/12/01 20:18:20;;;;;;;18.33;12.05;;;16.00;65.10;;;;;;10283390;28;20034;-51
2022/12/01 20:23:21;;;;;;;15.95;10.55;;;16.00;65.00;;;;;;10281079;28;20027;-52
2022/12/01 20:28:22;;;;;;;14.73;10.55;;;16.00;64.90;;;;;;10294812;28;20073;-54
2022/12/01 20:33:23;;;;;;;16.00;9.90;;;16.00;64.70;;;;;;10283251;28;20130;-53
2022/12/01 20:38:24;;;;;;;20.45;12.60;;;16.00;64.70;;;;;;10292729;28;20031;-55
2022/12/01 20:43:25;;;;;;;16.63;11.60;;;16.10;64.80;;;;;;10294199;28;20019;-52
2022/12/01 20:48:26;;;;;;;16.65;12.13;;;16.10;64.60;;;;;;10281013;28;20023;-54
2022/12/01 20:53:27;;;;;;;19.00;12.30;;;16.10;64.70;;;;;;10270035;28;20050;-53
2022/12/01 20:58:28;;;;;;;17.40;11.85;;;16.00;64.80;;;;;;10294864;28;20035;-53
2022/12/01 21:03:28;;;;;;;18.40;11.88;;;16.00;64.80;;;;;;10316512;28;20101;-54
2022/12/01 21:08:29;;;;;;;15.13;9.95;;;16.00;64.80;;;;;;10295567;28;20035;-52
2022/12/01 21:13:42;;;;;;;15.15;10.23;;;16.00;65.00;;;;;;10258991;28;20026;-55
2022/12/01 21:18:50;;;;;;;13.23;11.15;;;16.00;64.80;;;;;;10287199;28;20370;-52
2022/12/01 21:24:08;;;;;;;13.52;10.32;;;16.10;64.90;;;;;;10282577;28;20478;-52
2022/12/01 21:29:23;;;;;;;16.70;11.20;;;16.00;64.90;;;;;;10312889;28;20015;-53
2022/12/01 21:34:27;;;;;;;16.50;10.77;;;16.10;64.70;;;;;;10311546;28;20049;-54
2022/12/01 21:39:29;;;;;;;16.23;10.52;;;16.10;64.80;;;;;;10310660;28;20066;-52
2022/12/01 21:44:36;;;;;;;17.50;10.27;;;16.00;64.80;;;;;;10312794;28;20105;-54
2022/12/01 21:49:38;;;;;;;14.60;10.40;;;16.10;64.70;;;;;;10287396;28;20469;-51
2022/12/01 21:54:39;;;;;;;15.90;12.65;;;16.10;64.70;;;;;;10312169;28;20087;-53
2022/12/01 21:59:39;;;;;;;14.98;9.93;;;16.00;64.80;;;;;;10328886;28;20113;-51
2022/12/01 22:04:42;;;;;;;16.00;10.45;;;16.10;64.70;;;;;;10329122;28;20805;-53
2022/12/01 22:09:42;;;;;;;14.20;10.30;;;16.10;64.60;;;;;;10308366;28;20449;-52
2022/12/01 22:14:43;;;;;;;16.10;10.98;;;16.10;64.70;;;;;;10258514;28;20155;-53
2022/12/01 22:19:55;;;;;;;17.02;11.27;;;16.10;64.50;;;;;;10304743;28;20121;-54
2022/12/01 22:25:26;;;;;;;16.92;11.23;;;16.10;64.60;;;;;;10267942;28;20022;-53
2022/12/01 22:30:26;;;;;;;;;;;16.00;64.70;;;;;;10305936;28;20046;-52
2022/12/01 22:35:51;;;;;;;15.95;10.95;;;16.10;64.50;;;;;;10290185;28;19952;-54
2022/12/01 22:41:07;;;;;;;17.05;12.00;;;16.10;64.60;;;;;;10287951;28;20506;-55
2022/12/01 22:46:25;;;;;;;15.23;11.40;;;16.10;64.60;;;;;;10310038;28;20023;-53
2022/12/01 22:51:36;;;;;;;16.52;11.35;;;16.10;64.50;;;;;;10311524;28;20030;-53
2022/12/01 22:57:14;;;;;;;15.02;9.88;;;16.10;64.70;;;;;;10307624;28;20026;-55
2022/12/01 23:02:32;;;;;;;14.82;10.45;;;16.10;64.80;;;;;;10310789;28;20109;-54
2022/12/01 23:07:40;;;;;;;13.90;9.70;;;16.00;64.90;;;;;;10294387;28;20089;-54
2022/12/01 23:12:42;;;;;;;15.48;10.45;;;16.00;64.90;;;;;;10294381;28;20478;-54
2022/12/01 23:17:42;;;;;;;14.73;10.32;;;16.00;64.80;;;;;;10273960;28;20109;-52
2022/12/01 23:22:43;;;;;;;16.10;11.55;;;16.00;64.90;;;;;;10290335;28;20102;-54
2022/12/01 23:27:48;;;;;;;18.75;12.25;;;16.00;64.90;;;;;;10286731;28;20029;-51
2022/12/01 23:33:22;;;;;;;14.73;10.65;;;16.00;64.80;;;;;;10295546;28;20054;-53
2022/12/01 23:38:37;;;;;;;15.40;10.70;;;16.00;64.90;;;;;;10282387;28;20110;-54
2022/12/01 23:43:42;;;;;;;16.08;10.90;;;16.10;64.80;;;;;;10304953;28;20030;-54
2022/12/01 23:48:47;;;;;;;17.13;12.82;;;16.00;64.80;;;;;;10293393;28;20038;-52
2022/12/01 23:53:49;;;;;;;17.42;11.63;;;16.00;64.90;;;;;;10325493;28;20022;-57
2022/12/01 23:58:53;;;;;;;17.75;12.55;;;16.10;64.80;;;;;;10308057;28;20026;-51
